Time;durP1;ratioP1;P1;durP2;ratioP2;P2;SDS_P1;SDS_P2;PMS_P1;PMS_P2;Temp;Humidity;BMP_temperature;BMP_pressure;BME280_temperature;BME280_humidity;BME280_pressure;Samples;Min_cycle;Max_cycle;Signal;HPM_P1;HPM_P2
2022/05/26 00:01:08;;;;;;;42.00;9.13;;;13.80;99.90;;;;;;5054806;28;20443;-71
2022/05/26 00:03:36;;;;;;;43.65;11.70;;;13.90;99.90;;;;;;5055301;28;20041;-70
2022/05/26 00:06:05;;;;;;;40.08;10.32;;;13.80;99.90;;;;;;5053104;28;20041;-71
2022/05/26 00:08:31;;;;;;;47.88;10.05;;;13.80;99.90;;;;;;5036895;28;20045;-70
2022/05/26 00:10:56;;;;;;;41.20;10.25;;;13.70;99.90;;;;;;5055157;28;20121;-70
2022/05/26 00:13:22;;;;;;;36.95;10.43;;;13.70;99.90;;;;;;5055078;28;20044;-71
2022/05/26 00:15:49;;;;;;;47.78;10.88;;;13.70;99.90;;;;;;5054996;28;20041;-71
2022/05/26 00:18:15;;;;;;;39.45;9.15;;;13.60;99.90;;;;;;5052356;28;20123;-71
2022/05/26 00:20:41;;;;;;;41.55;10.20;;;13.60;99.90;;;;;;5037970;28;20363;-72
2022/05/26 00:23:06;;;;;;;34.38;9.23;;;13.60;99.90;;;;;;5035360;28;20049;-71
2022/05/26 00:25:32;;;;;;;43.97;8.60;;;13.50;99.90;;;;;;5034907;28;20046;-71
2022/05/26 00:27:57;;;;;;;38.08;9.80;;;13.50;99.90;;;;;;5034033;28;20367;-70
2022/05/26 00:30:23;;;;;;;36.70;8.80;;;13.50;99.90;;;;;;5015203;28;20077;-71
2022/05/26 00:32:48;;;;;;;30.90;8.63;;;13.50;99.90;;;;;;5015135;28;20081;-71
2022/05/26 00:35:15;;;;;;;31.27;8.52;;;13.50;99.90;;;;;;5013910;28;20041;-71
2022/05/26 00:37:44;;;;;;;23.10;7.47;;;13.60;99.90;;;;;;5015196;28;20065;-72
2022/05/26 00:40:11;;;;;;;29.90;7.63;;;13.50;99.90;;;;;;5015096;28;20392;-71
2022/05/26 00:42:37;;;;;;;27.83;7.72;;;13.60;99.90;;;;;;5026843;28;20132;-71
2022/05/26 00:45:04;;;;;;;40.13;9.57;;;13.60;99.90;;;;;;5054892;28;20490;-71
2022/05/26 00:47:33;;;;;;;35.72;7.30;;;13.60;99.90;;;;;;5054695;28;20131;-71
2022/05/26 00:50:05;;;;;;;31.50;8.07;;;13.60;99.90;;;;;;5054476;28;20106;-71
2022/05/26 00:52:45;;;;;;;31.33;7.65;;;13.60;99.90;;;;;;5054421;28;20359;-70
2022/05/26 00:55:27;;;;;;;30.35;8.27;;;13.60;99.90;;;;;;5054696;28;20041;-71
2022/05/26 00:58:17;;;;;;;31.15;8.65;;;13.60;99.90;;;;;;5053488;28;20063;-71
2022/05/26 01:00:43;;;;;;;36.65;9.32;;;13.70;99.90;;;;;;5054717;28;20084;-71
2022/05/26 01:03:20;;;;;;;30.05;8.55;;;13.70;99.90;;;;;;5036927;28;20063;-70
2022/05/26 01:06:10;;;;;;;29.30;6.90;;;13.70;99.90;;;;;;5054584;28;20124;-71
2022/05/26 01:09:00;;;;;;;29.92;8.52;;;13.70;99.90;;;;;;5054362;28;20111;-71
2022/05/26 01:11:27;;;;;;;29.80;7.65;;;13.70;99.90;;;;;;5034802;28;20065;-71
2022/05/26 01:14:09;;;;;;;25.35;7.68;;;13.70;99.90;;;;;;5034124;28;20422;-71
2022/05/26 01:16:49;;;;;;;25.35;6.63;;;13.70;99.90;;;;;;5034407;28;20089;-71
2022/05/26 01:19:44;;;;;;;19.00;6.13;;;13.80;99.90;;;;;;5034114;28;20060;-70
2022/05/26 01:22:31;;;;;;;21.02;5.22;;;13.80;99.90;;;;;;5034728;28;20456;-71
2022/05/26 01:25:21;;;;;;;24.02;5.10;;;13.80;99.90;;;;;;5017153;28;20391;-71
2022/05/26 01:28:06;;;;;;;19.42;5.50;;;13.80;99.90;;;;;;5032768;28;20467;-70
2022/05/26 01:30:49;;;;;;;18.13;5.80;;;13.80;99.90;;;;;;5034425;28;20046;-70
2022/05/26 01:33:38;;;;;;;22.05;6.47;;;13.80;99.90;;;;;;5034315;28;20084;-71
2022/05/26 01:36:20;;;;;;;16.08;5.45;;;13.80;99.90;;;;;;5034449;28;20069;-71
2022/05/26 01:39:02;;;;;;;22.17;5.40;;;13.80;99.90;;;;;;5034014;28;20444;-71
2022/05/26 01:41:52;;;;;;;19.13;5.00;;;13.80;99.90;;;;;;5039819;28;20053;-71
2022/05/26 01:44:26;;;;;;;18.25;5.07;;;13.80;99.90;;;;;;5014529;28;20136;-71
2022/05/26 01:46:57;;;;;;;;;;;13.80;99.90;;;;;;4998769;28;20049;-70
2022/05/26 01:49:46;;;;;;;19.92;5.18;;;13.80;99.90;;;;;;5018235;28;19945;-71
2022/05/26 01:52:40;;;;;;;20.63;4.75;;;13.80;99.90;;;;;;5000676;28;20050;-70
2022/05/26 01:55:13;;;;;;;13.77;4.25;;;13.70;99.90;;;;;;5005062;28;20140;-71
2022/05/26 01:57:54;;;;;;;19.52;4.60;;;13.70;99.90;;;;;;5030163;28;20111;-70
2022/05/26 02:00:20;;;;;;;19.67;4.80;;;13.60;99.90;;;;;;5057631;28;20061;-71
2022/05/26 02:02:53;;;;;;;12.75;5.03;;;13.50;99.90;;;;;;5057145;28;20037;-70
2022/05/26 02:05:23;;;;;;;19.05;5.35;;;13.50;99.90;;;;;;5044492;28;20049;-71
2022/05/26 02:07:57;;;;;;;17.67;4.80;;;13.50;99.90;;;;;;5019970;28;20053;-71
2022/05/26 02:10:36;;;;;;;24.95;4.90;;;13.50;99.90;;;;;;5037203;28;20459;-71
2022/05/26 02:13:07;;;;;;;18.90;4.32;;;13.40;99.90;;;;;;5037405;28;20050;-71
2022/05/26 02:15:36;;;;;;;14.50;3.80;;;13.40;99.90;;;;;;5037321;28;20057;-71
2022/05/26 02:18:14;;;;;;;18.48;5.28;;;13.40;99.90;;;;;;5037289;28;20049;-72
2022/05/26 02:20:52;;;;;;;15.75;5.20;;;13.30;99.90;;;;;;5036210;28;20095;-71
2022/05/26 02:23:30;;;;;;;13.20;3.70;;;13.20;99.90;;;;;;5037425;28;20080;-72
2022/05/26 02:25:57;;;;;;;12.25;3.60;;;13.20;99.90;;;;;;5019722;28;20045;-70
2022/05/26 02:28:23;;;;;;;21.50;3.92;;;13.20;99.90;;;;;;5037229;28;20049;-71
2022/05/26 02:30:50;;;;;;;13.00;3.40;;;13.10;99.90;;;;;;5037013;28;20045;-71
2022/05/26 02:33:17;;;;;;;9.25;3.30;;;13.10;99.90;;;;;;5037127;28;20474;-71
2022/05/26 02:35:49;;;;;;;12.00;4.35;;;13.00;99.90;;;;;;5055082;28;20060;-71
2022/05/26 02:38:21;;;;;;;11.23;3.17;;;13.00;99.90;;;;;;5056621;28;20171;-71
2022/05/26 02:40:48;;;;;;;10.88;3.00;;;13.00;99.90;;;;;;5056809;28;20048;-71
2022/05/26 02:43:23;;;;;;;9.75;2.83;;;12.90;99.90;;;;;;5021794;28;20088;-72
2022/05/26 02:45:49;;;;;;;10.73;3.08;;;12.90;99.90;;;;;;5056824;28;20052;-72
2022/05/26 02:48:34;;;;;;;9.25;2.60;;;12.90;99.90;;;;;;5055076;28;20186;-71
2022/05/26 02:51:28;;;;;;;11.38;3.05;;;12.90;99.90;;;;;;5056465;28;20061;-71
2022/05/26 02:54:22;;;;;;;12.13;3.08;;;12.80;99.90;;;;;;5056879;28;20340;-73
2022/05/26 02:57:15;;;;;;;10.63;2.95;;;12.70;99.90;;;;;;5056560;28;20049;-70
2022/05/26 03:00:09;;;;;;;11.95;2.85;;;12.70;99.90;;;;;;5055728;28;20431;-70
2022/05/26 03:03:06;;;;;;;9.80;2.90;;;12.70;99.90;;;;;;5056315;28;20063;-72
2022/05/26 03:05:50;;;;;;;11.20;3.03;;;12.70;99.90;;;;;;5027897;28;20042;-70
2022/05/26 03:08:19;;;;;;;13.50;2.95;;;12.80;99.90;;;;;;5016655;28;20473;-72
2022/05/26 03:10:50;;;;;;;14.85;3.70;;;12.70;99.90;;;;;;5016782;28;20085;-71
2022/05/26 03:13:17;;;;;;;12.35;3.58;;;12.70;99.90;;;;;;4999348;28;20124;-71
2022/05/26 03:15:42;;;;;;;9.93;3.58;;;12.80;99.90;;;;;;4998605;28;20068;-71
2022/05/26 03:18:09;;;;;;;14.50;3.35;;;12.80;99.90;;;;;;5020365;28;20045;-71
2022/05/26 03:20:36;;;;;;;9.68;2.90;;;12.80;99.90;;;;;;5035455;28;20057;-71
2022/05/26 03:23:02;;;;;;;10.57;3.05;;;12.70;99.90;;;;;;5056000;28;20049;-71
2022/05/26 03:25:27;;;;;;;10.63;3.40;;;12.70;99.90;;;;;;5056083;28;20036;-70
2022/05/26 03:27:53;;;;;;;9.88;2.88;;;12.60;99.90;;;;;;5055890;28;20083;-71
2022/05/26 03:30:19;;;;;;;13.48;3.72;;;12.60;99.90;;;;;;5055434;28;20037;-70
2022/05/26 03:32:46;;;;;;;8.52;2.25;;;12.50;99.90;;;;;;5054684;28;20132;-72
2022/05/26 03:40:46;;;;;;;7.18;2.28;;;12.40;99.90;;;;;;5055658;28;20053;-70
2022/05/26 03:43:14;;;;;;;8.13;2.88;;;12.30;99.90;;;;;;5055576;28;20060;-70
2022/05/26 03:45:39;;;;;;;9.85;3.08;;;12.30;99.90;;;;;;5055183;28;20135;-72
2022/05/26 03:48:06;;;;;;;13.43;2.83;;;12.30;99.90;;;;;;5035815;28;20088;-71
2022/05/26 03:50:33;;;;;;;18.90;3.13;;;12.30;99.90;;;;;;5055513;28;20052;-71
2022/05/26 03:52:59;;;;;;;10.88;2.67;;;12.30;99.90;;;;;;5055553;28;20049;-70
2022/05/26 03:55:25;;;;;;;9.50;2.53;;;12.30;99.90;;;;;;5055399;28;20055;-70
2022/05/26 03:57:52;;;;;;;13.38;3.20;;;12.30;99.90;;;;;;5055379;28;20037;-71
2022/05/26 04:00:21;;;;;;;8.27;2.88;;;12.20;99.90;;;;;;5055304;28;20080;-71
2022/05/26 04:02:47;;;;;;;11.43;2.78;;;12.30;99.90;;;;;;5053916;28;20045;-71
2022/05/26 04:05:13;;;;;;;10.10;2.58;;;12.20;99.90;;;;;;5021091;28;20053;-71
2022/05/26 04:07:39;;;;;;;15.13;2.83;;;12.20;99.90;;;;;;5038051;28;20112;-71
2022/05/26 04:10:10;;;;;;;10.32;2.78;;;12.20;99.90;;;;;;5054875;28;20469;-71
2022/05/26 04:12:37;;;;;;;10.65;3.88;;;12.20;99.90;;;;;;5037636;28;20485;-71
2022/05/26 04:15:04;;;;;;;15.27;3.13;;;12.20;99.90;;;;;;5055021;28;20064;-70
2022/05/26 04:17:30;;;;;;;11.63;3.60;;;12.20;99.90;;;;;;5036359;28;20118;-71
2022/05/26 04:19:56;;;;;;;12.80;3.40;;;12.10;99.90;;;;;;5055122;28;20037;-71
2022/05/26 04:22:23;;;;;;;16.02;3.33;;;12.10;99.90;;;;;;5037463;28;20049;-71
2022/05/26 04:24:55;;;;;;;12.45;2.60;;;12.10;99.90;;;;;;5055045;28;20120;-70
2022/05/26 04:27:24;;;;;;;15.77;2.97;;;12.20;99.90;;;;;;5054790;28;20049;-71
2022/05/26 04:29:49;;;;;;;14.52;2.65;;;12.20;99.90;;;;;;5052394;28;20056;-71
2022/05/26 04:32:15;;;;;;;13.93;3.28;;;12.30;99.90;;;;;;5054990;28;20045;-70
2022/05/26 04:34:42;;;;;;;13.57;2.65;;;12.30;99.90;;;;;;5054467;28;20041;-70
2022/05/26 04:37:07;;;;;;;9.23;2.38;;;12.30;99.90;;;;;;5053233;28;20048;-71
2022/05/26 04:39:33;;;;;;;11.70;2.88;;;12.30;99.90;;;;;;5037044;28;20060;-71
2022/05/26 04:42:01;;;;;;;14.57;3.00;;;12.30;99.90;;;;;;5054490;28;20362;-71
2022/05/26 04:44:32;;;;;;;13.23;2.88;;;12.40;99.90;;;;;;5054795;28;20041;-71
2022/05/26 04:46:58;;;;;;;12.68;2.80;;;12.40;99.90;;;;;;5036426;28;20120;-70
2022/05/26 04:49:24;;;;;;;12.23;3.35;;;12.40;99.90;;;;;;5040295;28;20124;-71
2022/05/26 04:51:49;;;;;;;9.98;2.88;;;12.50;99.90;;;;;;5054348;28;20041;-71
2022/05/26 04:54:16;;;;;;;11.20;2.85;;;12.50;99.90;;;;;;5054575;28;20044;-71
2022/05/26 04:56:41;;;;;;;11.77;2.80;;;12.60;99.90;;;;;;5037172;28;20063;-71
2022/05/26 04:59:07;;;;;;;15.90;3.00;;;12.60;99.90;;;;;;5037111;28;20045;-71
2022/05/26 05:01:33;;;;;;;13.27;2.50;;;12.70;99.90;;;;;;5053397;28;20102;-71
2022/05/26 05:04:00;;;;;;;13.68;3.67;;;12.80;99.90;;;;;;5051952;28;20049;-71
2022/05/26 05:06:26;;;;;;;10.82;2.88;;;12.80;99.90;;;;;;5054195;28;20084;-71
2022/05/26 05:08:51;;;;;;;15.73;3.45;;;12.90;99.90;;;;;;5054547;28;20099;-72
2022/05/26 05:11:17;;;;;;;8.80;2.65;;;12.90;99.90;;;;;;5054515;28;20364;-72
2022/05/26 05:13:43;;;;;;;12.38;2.80;;;13.00;99.90;;;;;;5054584;28;20047;-71
2022/05/26 05:16:21;;;;;;;11.23;2.88;;;13.10;99.90;;;;;;5053223;28;20053;-71
2022/05/26 05:18:46;;;;;;;11.77;2.60;;;13.10;99.90;;;;;;5054232;28;20131;-71
2022/05/26 05:21:17;;;;;;;11.93;3.55;;;13.20;99.90;;;;;;5054762;28;20464;-71
2022/05/26 05:23:46;;;;;;;10.48;2.97;;;13.20;99.90;;;;;;5058178;28;20521;-70
2022/05/26 05:26:16;;;;;;;9.13;2.90;;;13.20;99.90;;;;;;5058255;28;20051;-71
2022/05/26 05:28:57;;;;;;;17.35;2.60;;;13.30;99.90;;;;;;5058380;28;20099;-71
2022/05/26 05:31:28;;;;;;;12.73;3.42;;;13.30;99.90;;;;;;5041463;28;20069;-71
2022/05/26 05:33:58;;;;;;;9.00;3.15;;;13.30;99.90;;;;;;5038073;28;20057;-71
2022/05/26 05:36:26;;;;;;;11.02;2.45;;;13.40;99.90;;;;;;5037976;28;20356;-70
2022/05/26 05:38:53;;;;;;;10.73;2.55;;;13.50;99.90;;;;;;5037989;28;20072;-71
2022/05/26 05:41:20;;;;;;;13.85;2.72;;;13.50;99.90;;;;;;5037962;28;20115;-71
2022/05/26 05:43:46;;;;;;;11.10;2.17;;;13.50;99.90;;;;;;5036564;28;20486;-71
2022/05/26 05:46:14;;;;;;;8.93;2.65;;;13.50;99.90;;;;;;5038046;28;20042;-71
2022/05/26 05:48:43;;;;;;;10.55;2.53;;;13.60;99.90;;;;;;5037893;28;20053;-71
2022/05/26 05:51:09;;;;;;;14.30;2.58;;;13.60;99.90;;;;;;5034634;28;20059;-71
2022/05/26 05:53:35;;;;;;;7.80;2.10;;;13.70;99.90;;;;;;5057806;28;20328;-72
2022/05/26 05:56:01;;;;;;;11.85;2.63;;;13.70;99.90;;;;;;5057699;28;20147;-71
2022/05/26 05:58:26;;;;;;;8.77;2.50;;;13.80;99.90;;;;;;5057384;28;20119;-71
2022/05/26 06:00:52;;;;;;;14.50;2.67;;;13.80;99.90;;;;;;5039846;28;20061;-72
2022/05/26 06:03:18;;;;;;;11.35;2.70;;;13.80;99.90;;;;;;5057352;28;20041;-71
2022/05/26 06:05:44;;;;;;;11.27;3.17;;;13.80;99.90;;;;;;5047166;28;20043;-71
2022/05/26 06:08:09;;;;;;;13.65;2.33;;;13.80;99.90;;;;;;5057107;28;20118;-70
2022/05/26 06:10:35;;;;;;;12.45;2.63;;;13.70;99.90;;;;;;5039749;28;20053;-71
2022/05/26 06:13:01;;;;;;;11.40;2.22;;;13.70;99.90;;;;;;5057306;28;20041;-71
2022/05/26 06:15:26;;;;;;;12.15;2.67;;;13.80;99.90;;;;;;5053362;28;20052;-71
2022/05/26 06:17:52;;;;;;;12.88;3.25;;;14.00;99.90;;;;;;5037060;28;20487;-71
2022/05/26 06:20:18;;;;;;;11.85;3.05;;;14.00;99.90;;;;;;5037631;28;20049;-71
2022/05/26 06:22:45;;;;;;;8.48;2.55;;;14.00;99.90;;;;;;5037212;28;20376;-71
2022/05/26 06:25:13;;;;;;;15.52;3.65;;;14.00;99.90;;;;;;5049772;28;20045;-71
2022/05/26 06:30:26;;;;;;;13.05;2.53;;;14.00;99.90;;;;;;5057078;28;20057;-71
2022/05/26 06:38:30;;;;;;;11.05;2.72;;;14.00;99.90;;;;;;5055067;28;20052;-72
2022/05/26 06:40:56;;;;;;;12.00;2.50;;;14.00;99.90;;;;;;5056521;28;20474;-71
2022/05/26 06:43:23;;;;;;;11.25;2.65;;;14.00;99.90;;;;;;5056669;28;20045;-70
2022/05/26 06:45:49;;;;;;;7.97;2.45;;;14.00;99.90;;;;;;5056926;28;20375;-71
2022/05/26 06:48:15;;;;;;;9.73;2.63;;;14.00;99.90;;;;;;5038509;28;20067;-70
2022/05/26 06:50:41;;;;;;;11.25;2.42;;;14.00;99.90;;;;;;5024947;28;20103;-71
2022/05/26 06:53:08;;;;;;;14.63;2.72;;;14.10;99.90;;;;;;5015930;28;20479;-70
2022/05/26 06:55:33;;;;;;;12.20;2.55;;;14.10;99.90;;;;;;5016730;28;20088;-74
2022/05/26 06:57:59;;;;;;;8.75;2.33;;;14.20;99.90;;;;;;5029431;28;20087;-70
2022/05/26 07:00:25;;;;;;;10.35;2.97;;;14.20;99.90;;;;;;5040315;28;20045;-69
2022/05/26 07:02:53;;;;;;;12.77;2.88;;;14.30;99.90;;;;;;5039787;28;20033;-69
2022/05/26 07:05:19;;;;;;;10.63;2.30;;;14.30;99.90;;;;;;5015920;28;20055;-70
2022/05/26 07:07:45;;;;;;;12.40;2.63;;;14.20;99.90;;;;;;5036026;28;20336;-68
2022/05/26 07:10:13;;;;;;;15.50;3.15;;;14.20;99.90;;;;;;5040020;28;20048;-68
2022/05/26 07:12:39;;;;;;;12.45;3.22;;;14.30;99.90;;;;;;5039533;28;20049;-69
2022/05/26 07:15:06;;;;;;;9.55;2.28;;;14.40;99.90;;;;;;5016381;28;20067;-68
2022/05/26 07:17:32;;;;;;;11.23;2.67;;;14.30;99.90;;;;;;5043601;28;20057;-69
2022/05/26 07:19:57;;;;;;;8.88;2.40;;;14.30;99.90;;;;;;5055624;28;20049;-72
2022/05/26 07:22:23;;;;;;;14.77;2.30;;;14.40;99.90;;;;;;5055862;28;20443;-69
2022/05/26 07:24:49;;;;;;;9.18;2.60;;;14.40;99.90;;;;;;5055358;28;20152;-68
2022/05/26 07:27:15;;;;;;;10.75;2.42;;;14.50;99.90;;;;;;5055700;28;20412;-67
2022/05/26 07:29:41;;;;;;;8.65;2.20;;;14.30;99.90;;;;;;5055216;28;20041;-68
2022/05/26 07:32:07;;;;;;;9.48;2.13;;;14.30;99.90;;;;;;5053370;28;20078;-68
2022/05/26 07:34:33;;;;;;;10.40;2.25;;;14.40;99.90;;;;;;5054951;28;20419;-68
2022/05/26 07:42:32;;;;;;;11.65;2.08;;;14.70;99.90;;;;;;5037611;28;20042;-68
2022/05/26 07:45:00;;;;;;;8.30;2.55;;;14.70;99.90;;;;;;5037741;28;20143;-68
2022/05/26 07:47:27;;;;;;;10.90;2.70;;;14.80;99.90;;;;;;5038271;28;20048;-68
2022/05/26 07:49:54;;;;;;;10.05;2.67;;;14.70;99.90;;;;;;5037368;28;20466;-67
2022/05/26 07:52:20;;;;;;;8.77;2.30;;;14.70;99.90;;;;;;5035323;28;20041;-70
2022/05/26 07:54:46;;;;;;;10.07;2.10;;;14.70;99.90;;;;;;5035132;28;20383;-70
2022/05/26 07:57:30;;;;;;;9.40;3.17;;;14.70;99.90;;;;;;5035692;28;20379;-68
2022/05/26 07:59:58;;;;;;;10.98;2.30;;;14.80;99.90;;;;;;5041736;28;20122;-70
2022/05/26 08:02:24;;;;;;;9.07;2.38;;;14.80;99.90;;;;;;5055490;28;20048;-70
2022/05/26 08:04:49;;;;;;;10.30;2.30;;;14.80;99.90;;;;;;5037506;28;20047;-69
2022/05/26 08:07:16;;;;;;;8.48;2.42;;;14.80;99.90;;;;;;5054957;28;20124;-68
2022/05/26 08:09:41;;;;;;;11.80;3.13;;;14.90;99.90;;;;;;5054763;28;20128;-70
2022/05/26 08:12:10;;;;;;;7.80;1.98;;;14.90;99.90;;;;;;5037184;28;20084;-70
2022/05/26 08:14:36;;;;;;;11.73;2.30;;;15.00;99.90;;;;;;5044515;28;20053;-69
2022/05/26 08:17:02;;;;;;;7.57;2.17;;;15.10;99.90;;;;;;5034997;28;20056;-69
2022/05/26 08:19:28;;;;;;;8.18;1.80;;;15.20;99.90;;;;;;5017502;28;20049;-68
2022/05/26 08:21:54;;;;;;;8.35;2.75;;;15.10;99.90;;;;;;5031986;28;20057;-70
2022/05/26 08:24:20;;;;;;;6.80;1.33;;;15.20;99.90;;;;;;5036631;28;20073;-68
2022/05/26 08:26:47;;;;;;;4.90;1.73;;;15.20;99.90;;;;;;5038755;28;20077;-72
2022/05/26 08:29:12;;;;;;;6.80;1.67;;;15.40;99.90;;;;;;5037077;28;20135;-73
2022/05/26 08:31:38;;;;;;;4.00;1.63;;;15.40;99.90;;;;;;5035063;28;20128;-72
2022/05/26 08:34:04;;;;;;;8.38;1.60;;;15.30;99.90;;;;;;5035093;28;20048;-68
2022/05/26 08:36:30;;;;;;;6.05;1.67;;;15.40;99.90;;;;;;5034350;28;20056;-68
2022/05/26 08:38:55;;;;;;;7.22;2.08;;;15.50;99.90;;;;;;5017135;28;20387;-68
2022/05/26 08:41:24;;;;;;;7.20;2.08;;;15.60;99.90;;;;;;5041835;28;20041;-67
2022/05/26 08:44:04;;;;;;;5.90;2.08;;;15.50;99.90;;;;;;5054700;28;20363;-69
2022/05/26 08:46:48;;;;;;;12.95;2.65;;;15.60;99.90;;;;;;5036924;28;20041;-67
2022/05/26 08:49:28;;;;;;;8.13;2.65;;;15.70;99.90;;;;;;5037006;28;20044;-67
2022/05/26 08:52:12;;;;;;;5.97;2.08;;;15.60;99.90;;;;;;5054474;28;20107;-67
2022/05/26 08:54:47;;;;;;;3.55;1.83;;;15.50;99.90;;;;;;5036840;28;20060;-66
2022/05/26 08:57:17;;;;;;;6.22;2.13;;;15.50;99.90;;;;;;5028915;28;20064;-67
2022/05/26 08:59:45;;;;;;;8.30;2.38;;;15.60;99.90;;;;;;5058962;28;20039;-66
2022/05/26 09:02:25;;;;;;;9.93;2.60;;;15.70;99.90;;;;;;5058579;28;20052;-67
2022/05/26 09:04:52;;;;;;;9.30;2.55;;;15.80;99.90;;;;;;5058437;28;20045;-65
2022/05/26 09:12:57;;;;;;;9.23;2.60;;;16.00;99.90;;;;;;5058288;28;20414;-66
2022/05/26 09:15:24;;;;;;;5.25;1.63;;;16.00;99.90;;;;;;5040472;28;20059;-67
2022/05/26 09:17:50;;;;;;;6.53;1.58;;;16.20;99.90;;;;;;5058228;28;20076;-67
2022/05/26 09:20:39;;;;;;;3.85;1.40;;;16.30;99.90;;;;;;5040237;28;20073;-65
2022/05/26 09:23:13;;;;;;;11.25;2.30;;;16.40;99.90;;;;;;5057892;28;20095;-67
2022/05/26 09:26:02;;;;;;;11.30;2.85;;;16.40;99.90;;;;;;5057159;28;20057;-67
2022/05/26 09:29:06;;;;;;;5.15;1.80;;;16.70;99.90;;;;;;5044201;28;20049;-67
2022/05/26 09:31:34;;;;;;;11.43;2.30;;;16.90;99.90;;;;;;5028068;28;20057;-66
2022/05/26 09:34:09;;;;;;;6.57;2.45;;;16.80;99.90;;;;;;5038104;28;20037;-66
2022/05/26 09:36:43;;;;;;;5.35;2.03;;;16.60;99.90;;;;;;5038110;28;20085;-66
2022/05/26 09:39:10;;;;;;;6.97;2.93;;;16.60;99.90;;;;;;5038106;28;20086;-66
2022/05/26 09:41:49;;;;;;;6.80;2.80;;;16.40;99.90;;;;;;5037768;28;20107;-65
2022/05/26 09:44:21;;;;;;;7.65;2.60;;;16.40;99.90;;;;;;5037203;28;20486;-66
2022/05/26 09:46:53;;;;;;;7.22;2.55;;;16.40;99.90;;;;;;5050336;28;20056;-66
2022/05/26 09:49:23;;;;;;;8.73;3.08;;;16.50;99.90;;;;;;5039883;28;20059;-66
2022/05/26 09:51:49;;;;;;;8.30;2.33;;;16.60;99.90;;;;;;5057347;28;20528;-66
2022/05/26 09:54:26;;;;;;;6.50;2.72;;;16.60;99.90;;;;;;5057465;28;20048;-67
2022/05/26 09:56:52;;;;;;;8.48;2.83;;;16.70;99.90;;;;;;5057550;28;20088;-67
2022/05/26 09:59:34;;;;;;;6.18;3.03;;;16.60;99.90;;;;;;5055500;28;20433;-67
2022/05/26 10:02:17;;;;;;;10.07;3.53;;;16.90;99.90;;;;;;5040271;28;20064;-66
2022/05/26 10:05:07;;;;;;;11.00;3.60;;;16.80;99.90;;;;;;5056493;28;20087;-66
2022/05/26 10:07:51;;;;;;;10.63;3.22;;;17.10;99.90;;;;;;5056615;28;20060;-66
2022/05/26 10:10:22;;;;;;;10.27;2.78;;;17.00;99.90;;;;;;5057611;28;20048;-67
2022/05/26 10:12:55;;;;;;;7.70;3.05;;;17.10;99.90;;;;;;5057123;28;20053;-67
2022/05/26 10:15:45;;;;;;;11.68;3.05;;;16.90;99.90;;;;;;5056905;28;20053;-67
2022/05/26 10:18:29;;;;;;;10.80;3.13;;;17.00;99.90;;;;;;5055990;28;20052;-66
2022/05/26 10:21:26;;;;;;;10.30;3.30;;;17.30;99.90;;;;;;5025714;28;20049;-66
2022/05/26 10:24:17;;;;;;;8.02;2.90;;;17.30;99.90;;;;;;5057191;28;20052;-66
2022/05/26 10:27:14;;;;;;;9.73;3.05;;;17.20;99.90;;;;;;5043233;28;20057;-67
2022/05/26 10:30:04;;;;;;;9.20;3.08;;;17.10;99.90;;;;;;5035333;28;20046;-67
2022/05/26 10:32:32;;;;;;;9.02;3.20;;;16.90;99.90;;;;;;5002511;28;20436;-67
2022/05/26 10:35:07;;;;;;;8.98;3.95;;;16.60;99.90;;;;;;5019614;28;20050;-66
2022/05/26 10:37:39;;;;;;;;;;;16.50;99.90;;;;;;5037222;28;20416;-68
2022/05/26 10:40:23;;;;;;;11.77;3.72;;;16.60;99.90;;;;;;5019377;28;19925;-67
2022/05/26 10:43:08;;;;;;;;;;;16.80;99.90;;;;;;5019861;28;20115;-67
2022/05/26 10:45:42;;;;;;;11.05;4.03;;;16.80;99.90;;;;;;5040256;28;19929;-67
2022/05/26 10:48:41;;;;;;;10.52;3.83;;;16.60;99.90;;;;;;5039123;28;20069;-66
2022/05/26 10:51:17;;;;;;;15.35;4.45;;;16.40;99.90;;;;;;5056528;28;20048;-66
2022/05/26 10:54:03;;;;;;;10.88;4.30;;;16.40;99.90;;;;;;5055505;28;20055;-67
2022/05/26 10:56:39;;;;;;;12.32;4.15;;;16.40;99.90;;;;;;4999474;28;20360;-66
2022/05/26 10:59:26;;;;;;;10.40;3.58;;;16.30;99.90;;;;;;5016221;28;20483;-67
2022/05/26 11:01:55;;;;;;;13.10;3.90;;;16.60;99.90;;;;;;5016769;28;20107;-67
2022/05/26 11:04:58;;;;;;;12.98;3.85;;;16.40;99.90;;;;;;4999222;28;20053;-67
2022/05/26 11:07:51;;;;;;;12.73;3.40;;;16.70;99.90;;;;;;5006851;28;20058;-65
2022/05/26 11:10:31;;;;;;;8.40;3.70;;;16.90;99.90;;;;;;5029545;28;20456;-67
2022/05/26 11:13:27;;;;;;;6.95;2.95;;;17.20;99.90;;;;;;5036340;28;20044;-65
2022/05/26 11:18:53;;;;;;;12.07;3.13;;;17.80;99.90;;;;;;5051365;28;20045;-66
2022/05/26 11:21:21;;;;;;;10.15;2.92;;;17.80;99.90;;;;;;5038742;28;20075;-66
2022/05/26 11:23:47;;;;;;;9.27;2.67;;;17.60;99.90;;;;;;5046651;28;20051;-66
2022/05/26 11:26:37;;;;;;;8.05;2.72;;;17.80;99.90;;;;;;5056099;28;20060;-66
2022/05/26 11:29:24;;;;;;;11.48;3.40;;;17.60;99.90;;;;;;5056288;28;20044;-66
2022/05/26 11:38:16;;;;;;;8.75;3.88;;;17.10;99.90;;;;;;5054788;28;20068;-68
2022/05/26 11:40:47;;;;;;;8.90;3.28;;;17.10;99.90;;;;;;5052237;28;20489;-67
2022/05/26 11:43:23;;;;;;;7.93;2.83;;;17.20;99.90;;;;;;5053827;28;20048;-66
2022/05/26 11:45:52;;;;;;;8.48;3.25;;;17.30;99.90;;;;;;5031301;28;20037;-65
2022/05/26 11:48:33;;;;;;;9.88;3.20;;;17.30;99.90;;;;;;5038312;28;20354;-66
2022/05/26 11:51:03;;;;;;;7.10;2.72;;;17.50;99.90;;;;;;5045269;28;20041;-75
2022/05/26 11:53:36;;;;;;;7.68;3.25;;;17.70;99.90;;;;;;5015451;28;20149;-71
2022/05/26 11:56:23;;;;;;;8.88;3.08;;;17.80;99.90;;;;;;5032978;28;20403;-70
2022/05/26 11:59:27;;;;;;;9.00;3.33;;;17.80;99.90;;;;;;5054548;28;20048;-72
2022/05/26 12:01:59;;;;;;;9.75;3.03;;;17.70;99.90;;;;;;5017216;28;20566;-70
2022/05/26 12:04:30;;;;;;;10.85;3.22;;;17.80;99.90;;;;;;5055108;28;20045;-75
2022/05/26 12:07:14;;;;;;;7.82;2.13;;;17.90;99.90;;;;;;5038033;28;20048;-73
2022/05/26 12:09:51;;;;;;;12.65;3.60;;;18.20;99.90;;;;;;5033822;28;20132;-73
2022/05/26 12:12:23;;;;;;;9.57;3.17;;;18.00;99.90;;;;;;5040779;28;20045;-72
2022/05/26 12:14:55;;;;;;;8.68;3.63;;;18.00;99.90;;;;;;5055086;28;20094;-73
2022/05/26 12:17:56;;;;;;;13.68;3.00;;;18.00;99.90;;;;;;5055215;28;20041;-73
2022/05/26 12:20:21;;;;;;;9.20;2.40;;;18.00;99.90;;;;;;5041736;28;20095;-73
2022/05/26 12:22:47;;;;;;;13.00;2.60;;;18.00;99.90;;;;;;5051814;28;20119;-72
2022/05/26 12:25:27;;;;;;;8.07;3.35;;;17.90;99.90;;;;;;5039187;28;20363;-72
2022/05/26 12:27:55;;;;;;;7.30;2.63;;;17.80;99.90;;;;;;5015423;28;20096;-76
2022/05/26 12:30:46;;;;;;;9.73;2.67;;;17.50;99.90;;;;;;5015448;28;20045;-75
2022/05/26 12:33:18;;;;;;;7.38;2.78;;;17.40;99.90;;;;;;5015134;28;20049;-75
2022/05/26 12:36:19;;;;;;;10.05;3.03;;;17.50;99.90;;;;;;4998135;28;20056;-75
2022/05/26 12:39:23;;;;;;;11.45;3.28;;;17.50;99.90;;;;;;5054666;28;20076;-75
2022/05/26 12:42:04;;;;;;;13.65;4.18;;;17.40;99.90;;;;;;5054800;28;20037;-75
2022/05/26 12:44:41;;;;;;;9.40;3.17;;;17.50;99.90;;;;;;5037044;28;20447;-75
2022/05/26 12:47:21;;;;;;;11.82;4.13;;;17.50;99.90;;;;;;5054726;28;20402;-75
2022/05/26 12:50:07;;;;;;;14.50;4.07;;;17.60;99.90;;;;;;5054803;28;20352;-74
2022/05/26 12:52:47;;;;;;;13.40;4.60;;;17.50;99.90;;;;;;5051476;28;20462;-75
2022/05/26 12:55:18;;;;;;;9.68;2.95;;;17.20;99.90;;;;;;5054164;28;20091;-75
2022/05/26 12:58:07;;;;;;;14.38;3.70;;;17.50;99.90;;;;;;5054660;28;20090;-75
2022/05/26 13:00:38;;;;;;;26.52;5.80;;;17.30;99.90;;;;;;5036756;28;20132;-74
2022/05/26 13:03:14;;;;;;;10.50;4.00;;;17.10;99.90;;;;;;5054451;28;20451;-74
2022/05/26 13:05:43;;;;;;;18.42;4.60;;;17.30;99.90;;;;;;5052845;28;20040;-75
2022/05/26 13:08:17;;;;;;;14.15;3.67;;;17.30;99.90;;;;;;5054557;28;20045;-74
2022/05/26 13:10:43;;;;;;;;;;;17.70;99.90;;;;;;5055118;28;20114;-75
2022/05/26 13:16:41;;;;;;;12.35;3.58;;;17.60;99.90;;;;;;5050502;28;20052;-74
2022/05/26 13:19:14;;;;;;;9.38;3.72;;;17.50;99.90;;;;;;5036755;28;20048;-74
2022/05/26 13:21:42;;;;;;;10.90;3.50;;;17.30;99.90;;;;;;5054149;28;20358;-75
2022/05/26 13:24:20;;;;;;;10.45;3.70;;;17.40;99.90;;;;;;5054421;28;20447;-75
2022/05/26 13:26:49;;;;;;;13.55;3.80;;;17.40;99.90;;;;;;5054292;28;20099;-74
2022/05/26 13:29:18;;;;;;;11.90;3.50;;;17.60;99.90;;;;;;5049036;28;20053;-75
2022/05/26 13:34:32;;;;;;;12.23;3.72;;;17.50;99.90;;;;;;5053983;28;20052;-75
2022/05/26 13:37:13;;;;;;;13.43;4.22;;;17.50;99.90;;;;;;5054125;28;20041;-75
2022/05/26 13:39:39;;;;;;;14.10;3.72;;;17.20;99.90;;;;;;5053908;28;20057;-75
2022/05/26 13:42:06;;;;;;;9.68;4.10;;;17.30;99.90;;;;;;5052604;28;20375;-75
2022/05/26 13:44:43;;;;;;;10.30;4.03;;;17.00;99.90;;;;;;5037726;28;20115;-72
2022/05/26 13:47:12;;;;;;;9.85;4.53;;;17.30;99.90;;;;;;5037903;28;20494;-71
2022/05/26 13:49:41;;;;;;;13.90;4.05;;;17.30;99.90;;;;;;5038207;28;20050;-72